Time;durP1;ratioP1;P1;durP2;ratioP2;P2;SDS_P1;SDS_P2;PMS_P1;PMS_P2;Temp;Humidity;BMP_temperature;BMP_pressure;BME280_temperature;BME280_humidity;BME280_pressure;Samples;Min_cycle;Max_cycle;Signal;HPM_P1;HPM_P2
2022/10/11 00:01:55;;;;;;;;;;;15.00;99.90;;;;;;2616085;54;20445;-62
2022/10/11 00:04:24;;;;;;;;;;;15.10;99.90;;;;;;2617263;54;19962;-61
2022/10/11 00:06:56;;;;;;;;;;;14.20;99.90;;;;;;2615396;31;20386;-63
2022/10/11 00:09:26;;;;;;;;;;;14.20;99.90;;;;;;2613881;47;20057;-61
2022/10/11 00:11:56;;;;;;;;;;;14.10;99.90;;;;;;2616464;54;19956;-61
2022/10/11 00:14:26;;;;;;;;;;;14.20;99.90;;;;;;2618257;47;19998;-62
2022/10/11 00:16:56;;;;;;;;;;;14.10;99.90;;;;;;2616123;54;20026;-62
2022/10/11 00:19:25;;;;;;;;;;;14.10;99.90;;;;;;2614748;54;20001;-62
2022/10/11 00:21:57;;;;;;;;;;;14.10;99.90;;;;;;2613954;47;20036;-62
2022/10/11 00:24:27;;;;;;;;;;;14.10;99.90;;;;;;2612648;54;19946;-62
2022/10/11 00:26:56;;;;;;;;;;;14.20;99.90;;;;;;2614143;54;20065;-62
2022/10/11 00:29:26;;;;;;;;;;;14.20;99.90;;;;;;2617529;39;20440;-62
2022/10/11 00:31:55;;;;;;;;;;;14.20;99.90;;;;;;2618119;47;19946;-63
2022/10/11 00:34:25;;;;;;;;;;;14.20;99.90;;;;;;2614777;54;19958;-64
2022/10/11 00:36:54;;;;;;;;;;;14.30;99.90;;;;;;2611483;47;20042;-64
2022/10/11 00:39:26;;;;;;;;;;;14.30;99.90;;;;;;2614021;47;20488;-64
2022/10/11 00:41:56;;;;;;;;;;;14.30;99.90;;;;;;2615778;39;20530;-64
2022/10/11 00:44:27;;;;;;;;;;;14.30;99.90;;;;;;2614896;54;19958;-64
2022/10/11 00:46:59;;;;;;;;;;;14.30;99.90;;;;;;2613859;54;19993;-62
2022/10/11 00:49:32;;;;;;;;;;;14.40;99.90;;;;;;2613205;47;20026;-62
2022/10/11 00:52:03;;;;;;;;;;;14.30;99.90;;;;;;2614476;47;19967;-62
2022/10/11 00:54:37;;;;;;;;;;;14.30;99.90;;;;;;2614336;54;20018;-63
2022/10/11 00:57:08;;;;;;;;;;;14.20;99.90;;;;;;2614521;47;20536;-63
2022/10/11 00:59:40;;;;;;;;;;;14.30;99.90;;;;;;2613167;47;19947;-62
2022/10/11 01:02:10;;;;;;;;;;;14.30;99.90;;;;;;2613471;47;20998;-63
2022/10/11 01:04:39;;;;;;;;;;;14.30;99.90;;;;;;2615035;47;19955;-65
2022/10/11 01:07:09;;;;;;;;;;;14.30;99.90;;;;;;2614692;47;20030;-64
2022/10/11 01:09:41;;;;;;;;;;;14.30;99.90;;;;;;2614693;47;20049;-64
2022/10/11 01:12:16;;;;;;;;;;;14.20;99.90;;;;;;2614515;54;20057;-63
2022/10/11 01:15:00;;;;;;;;;;;14.20;99.90;;;;;;2614682;47;20402;-63
2022/10/11 01:17:33;;;;;;;;;;;14.20;99.90;;;;;;2613240;39;20350;-64
2022/10/11 01:20:13;;;;;;;;;;;14.20;99.90;;;;;;2613655;54;19989;-63
2022/10/11 01:22:56;;;;;;;;;;;14.20;99.90;;;;;;2614191;54;19967;-63
2022/10/11 01:25:31;;;;;;;;;;;14.20;99.90;;;;;;2613801;54;20560;-65
2022/10/11 01:28:08;;;;;;;;;;;14.20;99.90;;;;;;2613543;54;20045;-64
2022/10/11 01:30:41;;;;;;;;;;;14.20;99.90;;;;;;2615247;54;19947;-65
2022/10/11 01:33:14;;;;;;;;;;;14.00;99.90;;;;;;2615121;54;20034;-63
2022/10/11 01:35:47;;;;;;;;;;;14.00;99.90;;;;;;2613767;39;20380;-62
2022/10/11 01:38:21;;;;;;;;;;;14.00;99.90;;;;;;2614943;54;20002;-62
2022/10/11 01:40:52;;;;;;;;;;;13.90;99.90;;;;;;2618052;54;19973;-63
2022/10/11 01:43:22;;;;;;;;;;;13.80;99.90;;;;;;2617462;54;19947;-64
2022/10/11 01:45:56;;;;;;;;;;;13.80;99.90;;;;;;2617050;39;20358;-64
2022/10/11 01:48:25;;;;;;;;;;;13.70;99.90;;;;;;2616549;47;19974;-63
2022/10/11 01:50:57;;;;;;;;;;;13.70;99.90;;;;;;2616686;47;20037;-64
2022/10/11 01:53:36;;;;;;;;;;;13.70;99.90;;;;;;2618933;54;19950;-64
2022/10/11 01:56:09;;;;;;;;;;;13.70;99.90;;;;;;2616107;54;19951;-63
2022/10/11 01:58:46;;;;;;;;;;;13.70;99.90;;;;;;2613194;54;20062;-66
2022/10/11 02:01:24;;;;;;;;;;;13.60;99.90;;;;;;2615826;54;19986;-63
2022/10/11 02:03:59;;;;;;;;;;;13.50;99.90;;;;;;2616844;39;20379;-62
2022/10/11 02:06:34;;;;;;;;;;;13.50;99.90;;;;;;2615954;54;19993;-65
2022/10/11 02:09:07;;;;;;;;;;;13.50;99.90;;;;;;2616714;54;20052;-63
2022/10/11 02:11:39;;;;;;;;;;;13.40;99.90;;;;;;2615911;54;20033;-65
2022/10/11 02:14:10;;;;;;;;;;;13.40;99.90;;;;;;2616079;47;20038;-63
2022/10/11 02:16:44;;;;;;;;;;;13.30;99.90;;;;;;2615905;54;20519;-64
2022/10/11 02:19:16;;;;;;;;;;;13.30;99.90;;;;;;2615504;47;19994;-63
2022/10/11 02:21:48;;;;;;;;;;;13.20;99.90;;;;;;2616461;47;19938;-64
2022/10/11 02:24:19;;;;;;;;;;;13.20;99.90;;;;;;2617014;54;19964;-62
2022/10/11 02:26:51;;;;;;;;;;;13.40;99.90;;;;;;2615010;54;20038;-63
2022/10/11 02:29:22;;;;;;;;;;;13.20;99.90;;;;;;2616657;47;19958;-62
2022/10/11 02:31:55;;;;;;;;;;;13.10;99.90;;;;;;2616527;54;19954;-62
2022/10/11 02:34:27;;;;;;;;;;;13.10;99.90;;;;;;2615421;54;19950;-62
2022/10/11 02:37:00;;;;;;;;;;;13.00;99.90;;;;;;2616492;54;19947;-62
2022/10/11 02:39:33;;;;;;;;;;;13.00;99.90;;;;;;2618500;47;19951;-60
2022/10/11 02:42:03;;;;;;;;;;;13.00;99.90;;;;;;2621417;54;19990;-61
2022/10/11 02:44:38;;;;;;;;;;;12.90;99.90;;;;;;2620625;54;19943;-63
2022/10/11 02:47:10;;;;;;;;;;;12.90;99.90;;;;;;2617326;39;20408;-63
2022/10/11 02:49:40;;;;;;;;;;;12.90;99.90;;;;;;2617676;47;20052;-63
2022/10/11 02:52:09;;;;;;;;;;;12.80;99.90;;;;;;2619453;54;21300;-63
2022/10/11 02:54:39;;;;;;;;;;;12.80;99.90;;;;;;2617833;47;20060;-65
2022/10/11 02:57:08;;;;;;;;;;;12.80;99.90;;;;;;2616466;54;19946;-65
2022/10/11 02:59:38;;;;;;;;;;;12.80;99.90;;;;;;2616631;54;19997;-64
2022/10/11 03:02:07;;;;;;;;;;;12.80;99.90;;;;;;2615622;39;20374;-64
2022/10/11 03:04:39;;;;;;;;;;;12.70;99.90;;;;;;2615278;54;20993;-64
2022/10/11 03:07:09;;;;;;;;;;;12.70;99.90;;;;;;2615444;54;20034;-63
2022/10/11 03:09:38;;;;;;;;;;;12.70;99.90;;;;;;2615315;47;19951;-64
2022/10/11 03:12:08;;;;;;;;;;;12.60;99.90;;;;;;2616476;54;20026;-63
2022/10/11 03:14:38;;;;;;;;;;;12.60;99.90;;;;;;2618375;54;19975;-63
2022/10/11 03:17:07;;;;;;;;;;;12.60;99.90;;;;;;2616949;54;19950;-63
2022/10/11 03:19:59;;;;;;;;;;;12.60;99.90;;;;;;2617699;54;19946;-63
2022/10/11 03:22:29;;;;;;;;;;;12.60;99.90;;;;;;2616323;54;19954;-64
2022/10/11 03:24:58;;;;;;;;;;;12.50;99.90;;;;;;2615784;54;19975;-64
2022/10/11 03:27:32;;;;;;;;;;;12.50;99.90;;;;;;2615536;46;19985;-64
2022/10/11 03:30:02;;;;;;;;;;;12.50;99.90;;;;;;2615725;54;19950;-64
2022/10/11 03:32:32;;;;;;;;;;;12.40;99.90;;;;;;2615658;51;19981;-63
2022/10/11 03:35:04;;;;;;;;;;;12.40;99.90;;;;;;2615494;54;20030;-63
2022/10/11 03:37:34;;;;;;;;;;;12.40;99.90;;;;;;2615219;54;19950;-63
2022/10/11 03:40:03;;;;;;;;;;;12.40;99.90;;;;;;2615395;54;20536;-63
2022/10/11 03:42:32;;;;;;;;;;;12.30;99.90;;;;;;2615491;47;19955;-65
2022/10/11 03:45:03;;;;;;;;;;;12.30;99.90;;;;;;2615774;47;20580;-63
2022/10/11 03:47:33;;;;;;;;;;;12.20;99.90;;;;;;2614199;54;19979;-63
2022/10/11 03:50:06;;;;;;;;;;;12.20;99.90;;;;;;2615566;54;20001;-63
2022/10/11 03:52:35;;;;;;;;;;;12.20;99.90;;;;;;2615098;54;20074;-62
2022/10/11 03:55:05;;;;;;;;;;;12.00;99.90;;;;;;2615254;47;20508;-62
2022/10/11 03:57:34;;;;;;;;;;;12.00;99.90;;;;;;2613689;54;19973;-63
2022/10/11 04:00:04;;;;;;;;;;;12.00;99.90;;;;;;2614989;54;20446;-64
2022/10/11 04:02:33;;;;;;;;;;;12.00;99.90;;;;;;2614942;54;19969;-65
2022/10/11 04:05:11;;;;;;;;;;;11.90;99.90;;;;;;2613013;54;19954;-65
2022/10/11 04:07:41;;;;;;;;;;;11.80;99.90;;;;;;2613190;54;19946;-64
2022/10/11 04:10:10;;;;;;;;;;;11.80;99.90;;;;;;2614677;47;19963;-65
2022/10/11 04:12:40;;;;;;;;;;;11.80;99.90;;;;;;2614414;39;20345;-65
2022/10/11 04:15:11;;;;;;;;;;;11.80;99.90;;;;;;2615740;47;19955;-66
2022/10/11 04:17:41;;;;;;;;;;;11.80;99.90;;;;;;2613038;47;19990;-66
2022/10/11 04:20:13;;;;;;;;;;;11.70;99.90;;;;;;2612813;31;20583;-64
2022/10/11 04:22:43;;;;;;;;;;;11.70;99.90;;;;;;2614969;54;20466;-65
2022/10/11 04:25:12;;;;;;;;;;;11.70;99.90;;;;;;2612985;47;19985;-63
2022/10/11 04:27:42;;;;;;;;;;;11.70;99.90;;;;;;2616746;54;19954;-65
2022/10/11 04:30:12;;;;;;;;;;;11.60;99.90;;;;;;2618081;47;19994;-65
2022/10/11 04:32:42;;;;;;;;;;;11.60;99.90;;;;;;2616122;54;19997;-63
2022/10/11 04:35:14;;;;;;;;;;;11.60;99.90;;;;;;2617128;31;20409;-65
2022/10/11 04:37:43;;;;;;;;;;;11.50;99.90;;;;;;2614274;54;19955;-65
2022/10/11 04:40:13;;;;;;;;;;;11.40;99.90;;;;;;2614275;54;20447;-64
2022/10/11 04:42:43;;;;;;;;;;;11.40;99.90;;;;;;2612229;54;20000;-64
2022/10/11 04:45:12;;;;;;;;;;;11.30;99.90;;;;;;2615144;54;19955;-64
2022/10/11 04:47:42;;;;;;;;;;;11.30;99.90;;;;;;2615248;47;19950;-68
2022/10/11 04:50:14;;;;;;;;;;;11.20;99.90;;;;;;2615791;54;19993;-66
2022/10/11 04:52:44;;;;;;;;;;;11.10;99.90;;;;;;2614981;54;20078;-63
2022/10/11 04:55:13;;;;;;;;;;;11.10;99.90;;;;;;2614397;31;20429;-67
2022/10/11 04:57:43;;;;;;;;;;;11.10;99.90;;;;;;2614116;54;20030;-64
2022/10/11 05:00:13;;;;;;;;;;;11.00;99.90;;;;;;2615904;31;20413;-67
2022/10/11 05:02:42;;;;;;;;;;;11.00;99.90;;;;;;2613680;54;19954;-64
2022/10/11 05:05:16;;;;;;;;;;;11.00;99.90;;;;;;2614405;54;19989;-65
2022/10/11 05:07:46;;;;;;;;;;;11.00;99.90;;;;;;2614195;54;19941;-65
2022/10/11 05:10:15;;;;;;;;;;;11.00;99.90;;;;;;2619176;54;20001;-66
2022/10/11 05:12:44;;;;;;;;;;;10.90;99.90;;;;;;2618207;54;19951;-66
2022/10/11 05:15:14;;;;;;;;;;;10.90;99.90;;;;;;2614295;54;19946;-66
2022/10/11 05:17:44;;;;;;;;;;;10.90;99.90;;;;;;2613974;54;19995;-64
2022/10/11 05:20:16;;;;;;;;;;;10.80;99.90;;;;;;2613099;54;19954;-63
2022/10/11 05:22:45;;;;;;;;;;;10.80;99.90;;;;;;2615616;31;20445;-65
2022/10/11 05:25:15;;;;;;;;;;;10.80;99.90;;;;;;2614552;54;19977;-64
2022/10/11 05:27:44;;;;;;;;;;;11.00;99.90;;;;;;2612670;47;19951;-68
2022/10/11 05:30:14;;;;;;;;;;;10.70;99.90;;;;;;2614033;51;19981;-66
2022/10/11 05:32:43;;;;;;;;;;;10.80;99.90;;;;;;2614542;47;19965;-66
2022/10/11 05:35:15;;;;;;;;;;;10.70;99.90;;;;;;2614492;54;19946;-67
2022/10/11 05:37:45;;;;;;;;;;;10.70;99.90;;;;;;2613758;47;20727;-64
2022/10/11 05:40:15;;;;;;;;;;;10.60;99.90;;;;;;2613953;54;20003;-65
2022/10/11 05:42:45;;;;;;;;;;;10.50;99.90;;;;;;2615670;54;19968;-65
2022/10/11 05:45:14;;;;;;;;;;;10.50;99.90;;;;;;2617829;54;19950;-64
2022/10/11 05:47:44;;;;;;;;;;;10.50;99.90;;;;;;2616172;54;20001;-63
2022/10/11 05:50:16;;;;;;;;;;;10.40;99.90;;;;;;2616677;54;20504;-64
2022/10/11 05:52:52;;;;;;;;;;;10.40;99.90;;;;;;2616067;54;19947;-64
2022/10/11 05:55:21;;;;;;;;;;;10.40;99.90;;;;;;2615144;51;19954;-65
2022/10/11 05:57:53;;;;;;;;;;;10.40;99.90;;;;;;2615971;54;19950;-68
2022/10/11 06:00:23;;;;;;;;;;;10.30;99.90;;;;;;2612647;54;20586;-64
2022/10/11 06:02:52;;;;;;;;;;;10.30;99.90;;;;;;2617471;47;19950;-65
2022/10/11 06:05:24;;;;;;;;;;;10.20;99.90;;;;;;2618571;54;19950;-65
2022/10/11 06:07:54;;;;;;;;;;;10.20;99.90;;;;;;2613663;54;19951;-65
2022/10/11 06:10:23;;;;;;;;;;;10.20;99.90;;;;;;2613942;54;19977;-65
2022/10/11 06:12:53;;;;;;;;;;;10.20;99.90;;;;;;2614844;54;19977;-65
2022/10/11 06:15:22;;;;;;;;;;;10.20;99.90;;;;;;2616116;31;20418;-65
2022/10/11 06:17:52;;;;;;;;;;;10.20;99.90;;;;;;2614052;54;19975;-65
2022/10/11 06:20:21;;;;;;;;;;;10.30;99.90;;;;;;2614294;47;19942;-66
2022/10/11 06:22:53;;;;;;;;;;;10.30;99.90;;;;;;2616335;54;19990;-65
2022/10/11 06:25:23;;;;;;;;;;;10.30;99.90;;;;;;2615835;54;19939;-64
2022/10/11 06:27:53;;;;;;;;;;;10.30;99.90;;;;;;2614313;54;19974;-66
2022/10/11 06:30:23;;;;;;;;;;;10.30;99.90;;;;;;2614484;47;20066;-65
2022/10/11 06:32:52;;;;;;;;;;;10.30;99.90;;;;;;2614664;47;19993;-65
2022/10/11 06:35:22;;;;;;;;;;;10.30;99.90;;;;;;2614506;47;19958;-66
2022/10/11 06:37:54;;;;;;;;;;;10.30;99.90;;;;;;2613394;54;19954;-59
2022/10/11 06:40:23;;;;;;;;;;;10.40;99.90;;;;;;2613831;54;20068;-57
2022/10/11 06:42:53;;;;;;;;;;;10.50;99.90;;;;;;2614439;54;20001;-56
2022/10/11 06:45:22;;;;;;;;;;;10.50;99.90;;;;;;2613630;47;20477;-56
2022/10/11 06:47:52;;;;;;;;;;;10.50;99.90;;;;;;2614766;47;19954;-57
2022/10/11 06:50:21;;;;;;;;;;;10.60;99.90;;;;;;2614076;47;19986;-56
2022/10/11 06:53:13;;;;;;;;;;;10.70;99.90;;;;;;2613889;54;19966;-57
2022/10/11 06:55:43;;;;;;;;;;;10.70;99.90;;;;;;2614489;47;19977;-63
2022/10/11 06:58:12;;;;;;;;;;;10.70;99.90;;;;;;2614529;54;19993;-63
2022/10/11 07:00:42;;;;;;;;;;;10.80;99.90;;;;;;2613305;47;19938;-63
2022/10/11 07:03:11;;;;;;;;;;;10.80;99.90;;;;;;2617217;54;20568;-63
2022/10/11 07:05:41;;;;;;;;;;;10.80;99.90;;;;;;2618448;54;19953;-64
2022/10/11 07:08:10;;;;;;;;;;;10.80;99.90;;;;;;2614871;39;20601;-64
2022/10/11 07:10:42;;;;;;;;;;;10.90;99.90;;;;;;2614567;54;19950;-64
2022/10/11 07:13:12;;;;;;;;;;;10.90;99.90;;;;;;2615568;47;19961;-63
2022/10/11 07:15:45;;;;;;;;;;;11.00;99.90;;;;;;2613349;47;19946;-63
2022/10/11 07:18:15;;;;;;;;;;;11.00;99.90;;;;;;2611907;54;20098;-62
2022/10/11 07:20:45;;;;;;;;;;;11.00;99.90;;;;;;2613353;39;20345;-62
2022/10/11 07:23:14;;;;;;;;;;;11.10;99.90;;;;;;2614170;54;19957;-65
2022/10/11 07:25:47;;;;;;;;;;;11.20;99.90;;;;;;2614351;47;19950;-65
2022/10/11 07:28:17;;;;;;;;;;;11.20;99.90;;;;;;2614795;39;20084;-64
2022/10/11 07:30:46;;;;;;;;;;;11.30;99.90;;;;;;2614760;46;19947;-64
2022/10/11 07:33:16;;;;;;;;;;;11.40;99.90;;;;;;2614528;54;20002;-65
2022/10/11 07:35:46;;;;;;;;;;;11.40;99.90;;;;;;2611907;54;19985;-64
2022/10/11 07:38:17;;;;;;;;;;;11.50;99.90;;;;;;2614732;39;20093;-64
2022/10/11 07:40:49;;;;;;;;;;;11.50;99.90;;;;;;2621899;39;20445;-64
2022/10/11 07:43:18;;;;;;;;;;;11.60;99.90;;;;;;2620277;54;19947;-65
2022/10/11 07:45:49;;;;;;;;;;;11.70;99.90;;;;;;2615017;47;19993;-66
2022/10/11 07:48:18;;;;;;;;;;;11.70;99.90;;;;;;2614271;47;20025;-65
2022/10/11 07:50:48;;;;;;;;;;;11.80;99.90;;;;;;2613812;47;19951;-65
2022/10/11 07:53:17;;;;;;;;;;;11.80;99.90;;;;;;2615427;54;20297;-64
2022/10/11 07:55:49;;;;;;;;;;;11.80;99.90;;;;;;2617607;54;20001;-64
2022/10/11 07:58:19;;;;;;;;;;;11.90;99.90;;;;;;2615936;54;21289;-64
2022/10/11 08:00:53;;;;;;;;;;;11.90;99.90;;;;;;2617338;39;20381;-64
2022/10/11 08:03:23;;;;;;;;;;;12.00;99.90;;;;;;2615633;54;20449;-65
2022/10/11 08:05:53;;;;;;;;;;;12.10;99.90;;;;;;2615732;39;20374;-65
2022/10/11 08:08:23;;;;;;;;;;;12.10;99.90;;;;;;2613814;39;20385;-63
2022/10/11 08:10:55;;;;;;;;;;;12.10;99.90;;;;;;2616834;47;19994;-65
2022/10/11 08:13:24;;;;;;;;;;;12.10;99.90;;;;;;2616251;54;19942;-65
2022/10/11 08:15:54;;;;;;;;;;;12.20;99.90;;;;;;2615402;54;19958;-65
2022/10/11 08:18:23;;;;;;;;;;;12.20;99.90;;;;;;2614991;47;20454;-64
2022/10/11 08:20:53;;;;;;;;;;;12.30;99.90;;;;;;2615340;47;19982;-64
2022/10/11 08:23:22;;;;;;;;;;;12.40;99.90;;;;;;2615018;54;19950;-64
2022/10/11 08:25:57;;;;;;;;;;;12.40;99.90;;;;;;2615797;46;19989;-64
2022/10/11 08:28:27;;;;;;;;;;;12.50;99.90;;;;;;2615043;54;19946;-64
2022/10/11 08:30:57;;;;;;;;;;;12.50;99.90;;;;;;2613939;54;19946;-65
2022/10/11 08:33:27;;;;;;;;;;;12.60;99.90;;;;;;2614569;47;20526;-64
2022/10/11 08:35:57;;;;;;;;;;;12.70;99.90;;;;;;2614206;54;19946;-64
2022/10/11 08:38:26;;;;;;;;;;;12.80;99.90;;;;;;2612827;54;19954;-64
2022/10/11 08:40:59;;;;;;;;;;;12.80;99.90;;;;;;2614651;54;19947;-64
2022/10/11 08:43:38;;;;;;;;;;;12.90;99.90;;;;;;2616075;54;20040;-65
2022/10/11 08:46:09;;;;;;;;;;;13.00;99.90;;;;;;2616165;54;19963;-64
2022/10/11 08:48:39;;;;;;;;;;;13.10;99.90;;;;;;2615973;31;20419;-65
2022/10/11 08:51:15;;;;;;;;;;;13.20;99.90;;;;;;2612858;54;20054;-64
2022/10/11 08:53:47;;;;;;;;;;;13.20;99.90;;;;;;2613242;54;19946;-64
2022/10/11 08:56:21;;;;;;;;;;;13.30;99.90;;;;;;2614278;47;20078;-65
2022/10/11 08:58:53;;;;;;;;;;;13.30;99.90;;;;;;2615489;47;19954;-66
2022/10/11 09:01:24;;;;;;;;;;;13.40;99.90;;;;;;2614102;54;20062;-65
2022/10/11 09:03:54;;;;;;;;;;;13.50;99.90;;;;;;2614840;47;19954;-65
2022/10/11 09:06:29;;;;;;;;;;;13.50;99.90;;;;;;2609217;39;20372;-64
2022/10/11 09:09:11;;;;;;;;;;;13.60;99.90;;;;;;2611015;31;20421;-64
2022/10/11 09:11:46;;;;;;;;;;;13.70;99.90;;;;;;2613236;47;19967;-66
2022/10/11 09:14:24;;;;;;;;;;;13.80;99.90;;;;;;2614085;54;19954;-66
2022/10/11 09:17:01;;;;;;;;;;;13.80;99.90;;;;;;2611677;54;20038;-63
2022/10/11 09:19:47;;;;;;;;;;;13.80;99.90;;;;;;2613413;54;20469;-66
2022/10/11 09:22:18;;;;;;;;;;;13.90;99.90;;;;;;2614625;47;19972;-66
2022/10/11 09:24:57;;;;;;;;;;;13.90;99.90;;;;;;2617075;39;20348;-65
2022/10/11 09:27:32;;;;;;;;;;;14.00;99.90;;;;;;2615070;47;20438;-65
2022/10/11 09:30:22;;;;;;;;;;;14.00;99.90;;;;;;2616843;54;20543;-65
2022/10/11 09:32:56;;;;;;;;;;;14.10;99.90;;;;;;2613902;54;19953;-65
2022/10/11 09:35:25;;;;;;;;;;;14.20;99.90;;;;;;2613917;39;20318;-65
2022/10/11 09:37:57;;;;;;;;;;;14.30;99.90;;;;;;2617022;54;19997;-65
2022/10/11 09:40:33;;;;;;;;;;;14.40;99.90;;;;;;2615903;54;19938;-63
2022/10/11 09:43:06;;;;;;;;;;;14.50;99.90;;;;;;2617799;54;19957;-65
2022/10/11 09:45:35;;;;;;;;;;;14.60;99.90;;;;;;2617922;47;19950;-68
2022/10/11 09:48:06;;;;;;;;;;;14.70;99.90;;;;;;2615838;54;19939;-64
2022/10/11 09:50:36;;;;;;;;;;;14.70;99.90;;;;;;2616397;54;19979;-66
2022/10/11 09:53:06;;;;;;;;;;;14.80;99.90;;;;;;2617508;46;20484;-64
2022/10/11 09:55:38;;;;;;;;;;;14.80;99.90;;;;;;2617203;54;19950;-65
2022/10/11 09:58:25;;;;;;;;;;;14.80;99.90;;;;;;2615373;54;19962;-66
2022/10/11 10:00:58;;;;;;;;;;;14.80;99.90;;;;;;2616577;54;19962;-66
2022/10/11 10:03:36;;;;;;;;;;;14.90;99.90;;;;;;2614987;54;19950;-66
2022/10/11 10:06:07;;;;;;;;;;;14.90;99.90;;;;;;2616307;54;20643;-66
2022/10/11 10:08:38;;;;;;;;;;;15.00;99.90;;;;;;2617671;54;20559;-67
2022/10/11 10:11:08;;;;;;;;;;;15.00;99.90;;;;;;2620383;54;20027;-69
2022/10/11 10:13:56;;;;;;;;;;;15.10;99.90;;;;;;2617275;54;20399;-67
2022/10/11 10:16:29;;;;;;;;;;;15.20;99.90;;;;;;2615494;54;19950;-67
2022/10/11 10:18:59;;;;;;;;;;;15.30;99.90;;;;;;2615795;54;20006;-68
2022/10/11 10:21:31;;;;;;;;;;;15.50;99.90;;;;;;2618895;46;19951;-68
2022/10/11 10:24:03;;;;;;;;;;;15.50;99.90;;;;;;2616816;51;19970;-69
2022/10/11 10:26:34;;;;;;;;;;;15.70;99.90;;;;;;2616297;47;19978;-68
2022/10/11 10:29:06;;;;;;;;;;;15.70;99.90;;;;;;2617225;54;20458;-68
2022/10/11 10:31:40;;;;;;;;;;;15.60;99.90;;;;;;2617013;54;20480;-72
2022/10/11 10:34:31;;;;;;;;;;;15.80;99.90;;;;;;2616262;54;19970;-69
2022/10/11 10:37:03;;;;;;;;;;;15.90;99.90;;;;;;2617164;47;19953;-73
2022/10/11 10:39:35;;;;;;;;;;;16.10;99.90;;;;;;2617964;54;19994;-70
2022/10/11 10:42:06;;;;;;;;;;;16.20;99.90;;;;;;2617339;54;19990;-71
2022/10/11 10:44:36;;;;;;;;;;;16.20;99.90;;;;;;2614429;39;20973;-70
2022/10/11 10:47:12;;;;;;;;;;;16.40;99.90;;;;;;2614844;47;19989;-73
2022/10/11 10:49:44;;;;;;;;;;;16.50;99.90;;;;;;2617640;47;19993;-69
2022/10/11 10:52:33;;;;;;;;;;;16.60;99.90;;;;;;2616251;39;20432;-68
2022/10/11 10:55:08;;;;;;;;;;;16.80;99.90;;;;;;2617320;54;20053;-68
2022/10/11 10:57:40;;;;;;;;;;;16.90;99.90;;;;;;2616605;54;19951;-67
2022/10/11 11:00:14;;;;;;;;;;;17.00;99.90;;;;;;2614756;54;20457;-67
2022/10/11 11:02:51;;;;;;;;;;;17.20;99.90;;;;;;2616871;54;19953;-68
2022/10/11 11:05:25;;;;;;;;;;;17.20;99.90;;;;;;2617814;54;19939;-68
2022/10/11 11:07:58;;;;;;;;;;;17.30;99.90;;;;;;2617590;39;20389;-68
2022/10/11 11:10:32;;;;;;;;;;;17.40;99.90;;;;;;2615768;39;20422;-69
2022/10/11 11:13:07;;;;;;;;;;;17.50;99.90;;;;;;2616943;54;19989;-69
2022/10/11 11:15:39;;;;;;;;;;;17.60;99.90;;;;;;2617023;39;20381;-70
2022/10/11 11:18:19;;;;;;;;;;;17.70;99.90;;;;;;2615185;47;20449;-69
2022/10/11 11:20:54;;;;;;;;;;;17.80;99.90;;;;;;2617070;47;20500;-68
2022/10/11 11:23:28;;;;;;;;;;;18.00;99.90;;;;;;2616592;54;19962;-72
2022/10/11 11:26:02;;;;;;;;;;;18.10;99.90;;;;;;2621129;54;19947;-70
2022/10/11 11:28:42;;;;;;;;;;;18.20;99.90;;;;;;2622449;39;20357;-71
2022/10/11 11:31:17;;;;;;;;;;;18.30;99.90;;;;;;2615267;51;19993;-64
2022/10/11 11:33:54;;;;;;;;;;;18.20;99.90;;;;;;2616489;54;19939;-63
2022/10/11 11:36:27;;;;;;;;;;;18.00;99.90;;;;;;2616595;31;20612;-64
2022/10/11 11:38:59;;;;;;;;;;;18.00;99.90;;;;;;2614806;54;19994;-65
2022/10/11 11:41:32;;;;;;;;;;;18.10;99.90;;;;;;2614401;47;19966;-64
2022/10/11 11:44:03;;;;;;;;;;;18.30;99.90;;;;;;2613689;54;20064;-64
2022/10/11 11:46:35;;;;;;;;;;;18.50;99.90;;;;;;2614391;54;19946;-63
2022/10/11 11:49:13;;;;;;;;;;;18.60;99.90;;;;;;2612239;51;19975;-64
2022/10/11 11:51:44;;;;;;;;;;;18.80;99.90;;;;;;2614452;54;20561;-64
2022/10/11 11:54:20;;;;;;;;;;;18.80;99.90;;;;;;2615132;47;19950;-62
2022/10/11 11:56:55;;;;;;;;;;;19.00;99.90;;;;;;2614645;54;19973;-63
2022/10/11 11:59:28;;;;;;;;;;;19.00;99.90;;;;;;2615345;54;20433;-63
2022/10/11 12:02:03;;;;;;;;;;;18.90;99.90;;;;;;2613954;39;20380;-62
2022/10/11 12:04:37;;;;;;;;;;;18.80;99.90;;;;;;2614642;46;19962;-64
2022/10/11 12:07:09;;;;;;;;;;;18.80;99.90;;;;;;2615136;47;19966;-63
2022/10/11 12:09:49;;;;;;;;;;;18.70;99.90;;;;;;2614612;47;19943;-64
2022/10/11 12:12:30;;;;;;;;;;;18.90;99.90;;;;;;2615026;54;19950;-64
2022/10/11 12:15:05;;;;;;;;;;;19.10;99.90;;;;;;2613330;54;19993;-63
2022/10/11 12:17:35;;;;;;;;;;;19.30;99.90;;;;;;2615083;54;19946;-63
2022/10/11 12:20:16;;;;;;;;;;;19.50;99.90;;;;;;2615243;47;20002;-64
2022/10/11 12:22:57;;;;;;;;;;;19.60;99.90;;;;;;2612969;54;19959;-62
2022/10/11 12:25:43;;;;;;;;;;;19.70;99.90;;;;;;2615892;54;19947;-63
2022/10/11 12:28:28;;;;;;;;;;;20.00;99.90;;;;;;2614322;47;19955;-67
2022/10/11 12:31:04;;;;;;;;;;;20.20;99.90;;;;;;2614311;54;19966;-64
2022/10/11 12:33:50;;;;;;;;;;;20.20;99.90;;;;;;2616803;47;19957;-62
2022/10/11 12:36:35;;;;;;;;;;;20.20;99.90;;;;;;2618710;54;19962;-63
2022/10/11 12:39:20;;;;;;;;;;;20.20;99.90;;;;;;2619410;47;19971;-64
2022/10/11 12:41:55;;;;;;;;;;;20.20;99.90;;;;;;2618596;54;20051;-62
2022/10/11 12:44:26;;;;;;;;;;;20.00;99.90;;;;;;2618969;54;19947;-65
2022/10/11 12:47:19;;;;;;;;;;;19.90;99.90;;;;;;2618082;54;19946;-63
2022/10/11 12:49:53;;;;;;;;;;;19.60;99.90;;;;;;2617105;54;19950;-62
2022/10/11 12:52:25;;;;;;;;;;;19.20;99.90;;;;;;2617948;54;20038;-62
2022/10/11 12:55:09;;;;;;;;;;;19.00;99.90;;;;;;2616441;54;19994;-63
2022/10/11 12:58:06;;;;;;;;;;;18.90;99.90;;;;;;2615365;47;19985;-63
2022/10/11 13:00:45;;;;;;;;;;;18.90;99.90;;;;;;2615544;39;20026;-64
2022/10/11 13:03:30;;;;;;;;;;;18.80;99.90;;;;;;2615959;54;19954;-63
2022/10/11 13:06:01;;;;;;;;;;;18.70;99.90;;;;;;2615893;54;19953;-64
2022/10/11 13:08:32;;;;;;;;;;;18.70;99.90;;;;;;2614138;54;20045;-62
2022/10/11 13:11:03;;;;;;;;;;;18.70;99.90;;;;;;2616264;47;20038;-64
2022/10/11 13:13:34;;;;;;;;;;;18.70;99.90;;;;;;2615758;54;19950;-64
2022/10/11 13:16:09;;;;;;;;;;;18.70;99.90;;;;;;2610196;54;20038;-64
2022/10/11 13:18:42;;;;;;;;;;;18.60;99.90;;;;;;2615692;31;20406;-64
2022/10/11 13:21:19;;;;;;;;;;;18.60;99.90;;;;;;2613359;39;20045;-63
2022/10/11 13:23:56;;;;;;;;;;;18.40;99.90;;;;;;2614278;54;19955;-62
2022/10/11 13:26:26;;;;;;;;;;;18.40;99.90;;;;;;2614573;47;19967;-64
2022/10/11 13:28:56;;;;;;;;;;;18.30;99.90;;;;;;2612899;54;20546;-64
2022/10/11 13:31:29;;;;;;;;;;;18.20;99.90;;;;;;2614364;54;20098;-66
2022/10/11 13:33:59;;;;;;;;;;;18.20;99.90;;;;;;2615627;47;19951;-63
2022/10/11 13:36:29;;;;;;;;;;;18.10;99.90;;;;;;2611926;54;20062;-64
2022/10/11 13:38:59;;;;;;;;;;;18.00;99.90;;;;;;2614147;54;20601;-64
2022/10/11 13:41:30;;;;;;;;;;;17.90;99.90;;;;;;2614127;54;19985;-63
2022/10/11 13:44:01;;;;;;;;;;;17.90;99.90;;;;;;2613585;54;19986;-64
2022/10/11 13:46:33;;;;;;;;;;;17.90;99.90;;;;;;2614068;47;20063;-65
2022/10/11 13:49:03;;;;;;;;;;;17.90;99.90;;;;;;2612486;54;19969;-65
2022/10/11 13:51:34;;;;;;;;;;;17.90;99.90;;;;;;2613136;47;19950;-63
2022/10/11 13:54:05;;;;;;;;;;;18.00;99.90;;;;;;2613785;39;20425;-63
2022/10/11 13:56:43;;;;;;;;;;;18.10;99.90;;;;;;2614041;47;19947;-63
2022/10/11 13:59:14;;;;;;;;;;;18.10;99.90;;;;;;2613900;54;19989;-63
2022/10/11 14:01:46;;;;;;;;;;;18.10;99.90;;;;;;2612840;54;20069;-64
2022/10/11 14:04:18;;;;;;;;;;;18.10;99.90;;;;;;2614708;54;19951;-64
2022/10/11 14:06:48;;;;;;;;;;;18.10;99.90;;;;;;2614779;47;19951;-63
2022/10/11 14:09:20;;;;;;;;;;;18.10;99.90;;;;;;2616427;47;19962;-63
2022/10/11 14:11:50;;;;;;;;;;;18.10;99.90;;;;;;2615534;54;19946;-61
2022/10/11 14:14:40;;;;;;;;;;;18.20;99.90;;;;;;2614842;31;20474;-63
2022/10/11 14:17:17;;;;;;;;;;;18.10;99.90;;;;;;2615217;47;19997;-62
2022/10/11 14:19:48;;;;;;;;;;;18.10;99.90;;;;;;2617061;39;20239;-63
2022/10/11 14:22:18;;;;;;;;;;;18.20;99.90;;;;;;2615159;51;19994;-63
2022/10/11 14:24:49;;;;;;;;;;;18.30;99.90;;;;;;2614843;54;19950;-63
2022/10/11 14:27:21;;;;;;;;;;;18.40;99.90;;;;;;2611652;54;19970;-63
2022/10/11 14:29:51;;;;;;;;;;;18.40;99.90;;;;;;2614798;39;20405;-63
2022/10/11 14:32:43;;;;;;;;;;;18.50;99.90;;;;;;2615361;54;19946;-64
2022/10/11 14:35:16;;;;;;;;;;;18.50;99.90;;;;;;2614707;54;19951;-66
2022/10/11 14:37:46;;;;;;;;;;;18.60;99.90;;;;;;2614644;54;20453;-63
2022/10/11 14:40:17;;;;;;;;;;;18.70;99.90;;;;;;2614564;47;20412;-63
2022/10/11 14:42:46;;;;;;;;;;;18.90;99.90;;;;;;2615903;54;19993;-64
2022/10/11 14:45:16;;;;;;;;;;;19.70;99.90;;;;;;2616495;54;20480;-64
2022/10/11 14:47:48;;;;;;;;;;;21.70;99.90;;;;;;2614286;54;19969;-64